Time;durP1;ratioP1;P1;durP2;ratioP2;P2;SDS_P1;SDS_P2;PMS_P1;PMS_P2;Temp;Humidity;BMP_temperature;BMP_pressure;BME280_temperature;BME280_humidity;BME280_pressure;Samples;Min_cycle;Max_cycle;Signal;HPM_P1;HPM_P2
2020/12/30 00:01:54;;;;;;;29.90;13.60;;;;;;;23.06;55.55;157202.23;1728237;83;21193;-79
2020/12/30 00:04:27;;;;;;;25.90;12.75;;;;;;;22.96;55.79;157174.39;1728690;83;21757;-80
2020/12/30 00:06:59;;;;;;;28.42;13.22;;;;;;;22.95;55.79;157173.03;1725978;83;21221;-79
2020/12/30 00:09:32;;;;;;;27.80;13.38;;;;;;;22.75;56.15;157118.70;1729762;83;21268;-79
2020/12/30 00:12:04;;;;;;;30.08;13.55;;;;;;;22.80;55.93;157131.97;1728385;83;21186;-77
2020/12/30 00:14:37;;;;;;;27.40;13.08;;;;;;;22.87;56.80;157150.50;1726318;83;21177;-77
2020/12/30 00:17:09;;;;;;;28.57;13.35;;;;;;;22.96;55.87;157174.39;1733803;82;21387;-80
2020/12/30 00:19:42;;;;;;;27.60;14.15;;;;;;;22.96;55.92;157174.39;1729231;82;21879;-79
2020/12/30 00:22:14;;;;;;;32.90;14.05;;;;;;;22.92;56.10;157165.08;1726849;82;21387;-80
2020/12/30 00:24:46;;;;;;;26.80;12.88;;;;;;;22.95;55.63;157171.73;1730834;82;21157;-78
2020/12/30 00:27:19;;;;;;;28.75;13.40;;;;;;;23.07;55.52;157203.59;1732885;81;21332;-79
2020/12/30 00:29:51;;;;;;;27.52;13.10;;;;;;;23.10;55.33;157212.84;1728828;82;21364;-79
2020/12/30 00:32:23;;;;;;;25.80;13.03;;;;;;;23.16;55.32;157228.73;1730600;82;21313;-79
2020/12/30 00:34:56;;;;;;;26.33;12.73;;;;;;;23.21;55.31;157240.66;1732543;82;21374;-79
2020/12/30 00:37:28;;;;;;;29.18;14.30;;;;;;;23.23;54.90;157245.95;1698756;84;21223;-81
2020/12/30 00:40:01;;;;;;;31.33;14.20;;;;;;;23.27;54.98;157256.58;1730115;82;21201;-79
2020/12/30 00:42:37;;;;;;;28.42;14.65;;;;;;;23.32;55.31;157271.16;1731481;82;21765;-80
2020/12/30 00:45:11;;;;;;;29.25;14.78;;;;;;;23.39;55.10;157289.69;1727135;82;21379;-80
2020/12/30 00:47:44;;;;;;;30.57;14.40;;;;;;;23.37;54.95;157284.44;1698061;84;21226;-79
2020/12/30 00:50:16;;;;;;;32.28;15.70;;;;;;;23.37;54.87;157283.08;1728501;82;21387;-82
2020/12/30 00:52:50;;;;;;;29.32;14.65;;;;;;;23.35;54.73;157277.77;1730841;82;21451;-79
2020/12/30 00:55:22;;;;;;;28.95;14.63;;;;;;;23.28;54.64;157259.23;1731967;82;21392;-78
2020/12/30 00:57:56;;;;;;;33.73;14.68;;;;;;;23.18;54.58;157234.03;1696916;84;21210;-78
2020/12/30 01:00:29;;;;;;;30.20;14.98;;;;;;;23.14;54.77;157223.47;1729523;82;21359;-78
2020/12/30 01:03:19;;;;;;;29.47;14.17;;;;;;;23.16;54.79;157228.73;1732788;82;21348;-78
2020/12/30 01:05:51;;;;;;;34.33;15.65;;;;;;;23.12;55.16;157218.16;1730475;82;21428;-78
2020/12/30 01:08:24;;;;;;;29.70;14.23;;;;;;;23.09;54.82;157210.20;1731130;82;21198;-78
2020/12/30 01:10:56;;;;;;;25.43;13.72;;;;;;;23.08;54.99;157207.55;1731795;82;21379;-77
2020/12/30 01:13:29;;;;;;;28.07;14.20;;;;;;;23.18;54.70;157234.03;1730857;82;21376;-77
2020/12/30 01:16:01;;;;;;;27.73;13.53;;;;;;;23.22;54.69;157244.66;1729564;82;21340;-78
2020/12/30 01:18:33;;;;;;;28.23;13.53;;;;;;;23.25;54.56;157251.27;1723345;82;21953;-77
2020/12/30 01:21:05;;;;;;;30.17;15.85;;;;;;;23.24;54.60;157248.61;1722764;82;21312;-77
2020/12/30 01:23:38;;;;;;;31.12;15.18;;;;;;;23.28;54.58;157259.23;1690637;84;21362;-77
2020/12/30 01:26:13;;;;;;;26.20;13.62;;;;;;;23.26;54.75;157255.22;1671024;85;21243;-80
2020/12/30 01:28:45;;;;;;;28.00;13.78;;;;;;;23.35;54.46;157277.77;1722479;82;21162;-77
2020/12/30 01:31:18;;;;;;;23.15;12.90;;;;;;;23.33;54.47;157273.81;1694895;84;21380;-77
2020/12/30 01:33:51;;;;;;;23.12;12.80;;;;;;;23.39;54.41;157288.39;1666955;85;21224;-78
2020/12/30 01:36:24;;;;;;;25.05;13.30;;;;;;;23.36;54.28;157281.78;1663005;85;21207;-80
2020/12/30 01:38:57;;;;;;;24.90;13.60;;;;;;;23.33;54.42;157273.81;1723368;82;21736;-78
2020/12/30 01:41:29;;;;;;;28.15;14.93;;;;;;;23.33;54.13;157272.47;1721755;82;21199;-77
2020/12/30 01:44:09;;;;;;;23.80;12.30;;;;;;;23.27;53.98;157256.58;1721926;82;21391;-81
2020/12/30 01:46:47;;;;;;;24.37;13.58;;;;;;;23.19;54.12;157235.39;1723029;82;21397;-79
2020/12/30 01:49:21;;;;;;;20.17;12.73;;;;;;;23.17;53.92;157231.38;1693616;84;21215;-76
2020/12/30 01:51:55;;;;;;;18.80;12.53;;;;;;;23.64;52.92;157355.97;1676080;84;21756;-80
2020/12/30 01:54:28;;;;;;;20.08;13.15;;;;;;;23.64;52.69;157354.67;1723654;82;21219;-79
2020/12/30 01:57:01;;;;;;;21.57;12.37;;;;;;;23.32;52.93;157271.16;1723305;82;21176;-79
2020/12/30 01:59:33;;;;;;;21.20;13.13;;;;;;;23.24;53.11;157248.61;1691446;84;21269;-78
2020/12/30 02:02:10;;;;;;;21.87;12.60;;;;;;;23.03;52.93;157194.22;1677251;83;21224;-79
2020/12/30 02:04:51;;;;;;;25.27;13.62;;;;;;;22.97;52.69;157178.34;1684585;83;21377;-79
2020/12/30 02:07:24;;;;;;;21.87;12.73;;;;;;;22.89;52.59;157157.16;1686419;84;21356;-79
2020/12/30 02:09:58;;;;;;;23.87;13.50;;;;;;;22.79;52.88;157129.31;1691416;84;21829;-79
2020/12/30 02:12:30;;;;;;;23.57;13.48;;;;;;;22.70;52.75;157105.48;1689129;83;21397;-80
2020/12/30 02:15:03;;;;;;;23.87;14.33;;;;;;;22.64;52.57;157088.27;1695429;84;21331;-78
2020/12/30 02:17:35;;;;;;;30.15;14.13;;;;;;;22.56;52.75;157067.09;1691096;83;21389;-81
2020/12/30 02:20:08;;;;;;;23.90;13.98;;;;;;;22.47;52.75;157044.56;1676487;84;21207;-80
2020/12/30 02:22:40;;;;;;;27.10;14.58;;;;;;;22.35;52.78;157012.77;1661690;85;21302;-79
2020/12/30 02:25:13;;;;;;;24.95;14.68;;;;;;;22.26;52.77;156987.55;1721654;82;21255;-79
2020/12/30 02:27:45;;;;;;;20.45;13.22;;;;;;;22.28;52.98;156992.84;1692892;84;22691;-79
2020/12/30 02:30:19;;;;;;;23.92;14.07;;;;;;;22.21;52.93;156975.63;1671605;85;21288;-79
2020/12/30 02:32:51;;;;;;;20.97;12.93;;;;;;;22.23;52.92;156979.58;1691021;83;21202;-78
2020/12/30 02:35:27;;;;;;;23.05;14.50;;;;;;;22.22;52.90;156978.28;1676294;84;21215;-79
2020/12/30 02:38:00;;;;;;;24.32;13.40;;;;;;;22.18;52.65;156967.67;1660919;85;21210;-78
2020/12/30 02:40:32;;;;;;;18.92;12.65;;;;;;;22.03;53.34;156926.62;1668864;85;21325;-78
2020/12/30 02:43:04;;;;;;;20.75;13.10;;;;;;;22.18;53.49;156966.38;1723612;82;21290;-79
2020/12/30 02:45:37;;;;;;;19.87;12.33;;;;;;;22.24;53.60;156982.23;1724841;82;21712;-76
2020/12/30 02:48:09;;;;;;;21.68;13.53;;;;;;;22.28;53.37;156994.14;1721343;82;21277;-84
2020/12/30 02:50:41;;;;;;;19.00;12.35;;;;;;;22.31;53.68;157002.11;1722208;82;21870;-85
2020/12/30 02:53:14;;;;;;;18.92;11.78;;;;;;;22.33;53.42;157007.47;1694710;84;21175;-85
2020/12/30 02:55:47;;;;;;;20.57;12.70;;;;;;;22.35;53.64;157011.42;1675984;84;21237;-88
2020/12/30 02:58:19;;;;;;;20.32;11.95;;;;;;;22.32;53.55;157004.81;1676857;84;21229;-87
2020/12/30 03:00:52;;;;;;;19.82;11.93;;;;;;;22.36;53.59;157014.06;1655375;84;21855;-87
2020/12/30 03:03:25;;;;;;;21.70;12.73;;;;;;;22.29;53.64;156996.80;1656639;85;21288;-85
2020/12/30 03:05:58;;;;;;;17.67;11.22;;;;;;;22.25;53.77;156984.89;1686402;84;21241;-87
2020/12/30 03:08:30;;;;;;;18.02;11.20;;;;;;;22.28;53.89;156992.84;1691102;84;21193;-85
2020/12/30 03:11:03;;;;;;;16.37;10.13;;;;;;;22.35;53.74;157012.77;1689657;84;21209;-84
2020/12/30 03:13:36;;;;;;;18.48;11.18;;;;;;;22.34;53.93;157010.13;1675431;84;21210;-87
2020/12/30 03:16:08;;;;;;;16.42;10.72;;;;;;;22.37;53.55;157018.08;1668466;85;21328;-85
2020/12/30 03:18:41;;;;;;;19.85;11.12;;;;;;;22.31;53.56;157000.81;1673177;85;21202;-86
2020/12/30 03:21:13;;;;;;;17.77;11.35;;;;;;;22.25;53.92;156984.89;1687560;84;21412;-85
2020/12/30 03:23:47;;;;;;;17.23;10.93;;;;;;;22.21;54.04;156975.63;1690061;83;21220;-89
2020/12/30 03:26:20;;;;;;;17.40;10.90;;;;;;;22.29;54.11;156996.80;1664116;85;21765;-86
2020/12/30 03:28:52;;;;;;;16.55;10.80;;;;;;;22.31;54.04;157000.81;1692773;84;21400;-84
2020/12/30 03:31:24;;;;;;;18.00;11.10;;;;;;;22.38;53.87;157019.38;1693017;84;21247;-84
2020/12/30 03:33:58;;;;;;;17.17;10.82;;;;;;;22.34;53.87;157008.77;1691009;84;21424;-84
2020/12/30 03:36:30;;;;;;;17.87;10.23;;;;;;;22.27;53.98;156990.19;1669193;85;21263;-83
2020/12/30 03:39:03;;;;;;;17.25;11.35;;;;;;;22.23;53.94;156980.94;1720356;81;21660;-83
2020/12/30 03:41:35;;;;;;;15.88;10.82;;;;;;;22.14;53.76;156957.11;1722338;82;21352;-83
2020/12/30 03:44:08;;;;;;;17.65;11.00;;;;;;;22.02;53.72;156923.98;1725743;82;21273;-84
2020/12/30 03:46:40;;;;;;;17.65;11.40;;;;;;;21.99;53.68;156917.37;1724900;82;21941;-83
2020/12/30 03:49:13;;;;;;;17.12;10.68;;;;;;;21.94;53.60;156902.81;1722862;82;21752;-85
2020/12/30 03:51:45;;;;;;;19.37;11.18;;;;;;;22.06;53.68;156934.59;1720074;82;21205;-78
2020/12/30 03:54:17;;;;;;;17.15;11.35;;;;;;;22.00;53.70;156918.69;1720735;82;21729;-79
2020/12/30 03:56:50;;;;;;;21.20;13.53;;;;;;;21.99;53.70;156916.03;1723789;82;21333;-79
2020/12/30 03:59:22;;;;;;;22.22;12.43;;;;;;;22.01;53.76;156922.69;1691039;84;21326;-79
2020/12/30 04:01:54;;;;;;;21.10;13.08;;;;;;;22.02;53.87;156925.34;1692541;83;21731;-78
2020/12/30 04:04:26;;;;;;;21.60;13.38;;;;;;;22.02;53.84;156925.34;1677670;84;21186;-78
2020/12/30 04:06:59;;;;;;;19.70;12.07;;;;;;;21.96;54.11;156908.13;1687309;83;21465;-78
2020/12/30 04:09:31;;;;;;;18.50;11.22;;;;;;;21.98;53.91;156913.42;1676220;85;21222;-78
2020/12/30 04:12:03;;;;;;;16.05;10.40;;;;;;;22.00;53.87;156918.69;1721950;82;21379;-79
2020/12/30 04:14:36;;;;;;;17.55;11.18;;;;;;;21.96;53.96;156908.13;1724127;82;21366;-79
2020/12/30 04:17:08;;;;;;;15.05;10.23;;;;;;;21.95;54.05;156906.77;1722525;82;21178;-79
2020/12/30 04:19:40;;;;;;;15.25;10.28;;;;;;;22.01;53.80;156921.33;1723085;82;21291;-79
2020/12/30 04:22:12;;;;;;;18.75;10.45;;;;;;;22.01;53.82;156921.33;1715374;82;21767;-79
2020/12/30 04:24:45;;;;;;;18.25;11.73;;;;;;;22.01;53.71;156922.69;1659392;85;21247;-79
2020/12/30 04:27:17;;;;;;;16.12;10.68;;;;;;;21.99;53.74;156916.03;1639320;86;21244;-79
2020/12/30 04:29:49;;;;;;;16.77;10.23;;;;;;;21.94;53.75;156902.81;1674804;85;21764;-78
2020/12/30 04:32:22;;;;;;;20.65;11.03;;;;;;;21.94;53.82;156902.81;1686271;84;21205;-79
2020/12/30 04:34:54;;;;;;;17.52;11.18;;;;;;;21.93;53.84;156900.16;1686313;84;21275;-78
2020/12/30 04:37:26;;;;;;;17.77;10.85;;;;;;;21.95;54.23;156905.47;1681515;84;21207;-79
2020/12/30 04:39:58;;;;;;;14.83;9.93;;;;;;;21.96;54.18;156909.42;1682878;84;21889;-79
2020/12/30 04:42:36;;;;;;;19.25;11.48;;;;;;;21.98;54.33;156913.42;1674105;84;21986;-79
2020/12/30 04:45:11;;;;;;;22.40;13.25;;;;;;;22.11;53.85;156947.81;1683780;83;21245;-79
2020/12/30 04:47:44;;;;;;;20.23;12.33;;;;;;;22.11;53.82;156949.16;1677641;84;21232;-80
2020/12/30 04:50:16;;;;;;;20.65;11.55;;;;;;;22.11;54.07;156949.16;1677186;85;21226;-79
2020/12/30 04:52:48;;;;;;;16.10;10.58;;;;;;;22.12;53.96;156951.81;1713622;82;21891;-78
2020/12/30 04:55:25;;;;;;;17.27;10.40;;;;;;;22.10;53.89;156946.50;1676723;85;21213;-79
2020/12/30 04:58:09;;;;;;;18.17;11.15;;;;;;;22.13;53.97;156954.47;1647009;84;21218;-79
2020/12/30 05:00:41;;;;;;;20.40;11.30;;;;;;;22.17;54.07;156965.03;1665794;85;21236;-85
2020/12/30 05:03:14;;;;;;;27.17;12.93;;;;;;;22.21;54.12;156974.33;1681289;83;21265;-83
2020/12/30 05:05:47;;;;;;;27.82;12.98;;;;;;;22.27;54.24;156990.19;1682374;83;21246;-82
2020/12/30 05:08:27;;;;;;;25.48;12.43;;;;;;;22.33;54.27;157006.16;1666542;83;21335;-79
2020/12/30 05:11:00;;;;;;;24.43;12.82;;;;;;;22.35;54.66;157012.77;1672817;85;21245;-78
2020/12/30 05:13:33;;;;;;;24.10;12.35;;;;;;;22.36;54.66;157015.42;1671230;85;21245;-74
2020/12/30 05:16:05;;;;;;;23.12;12.30;;;;;;;22.49;54.31;157048.52;1674805;85;21162;-75
2020/12/30 05:18:40;;;;;;;21.80;11.12;;;;;;;22.43;54.33;157033.94;1714952;82;21212;-74
2020/12/30 05:21:13;;;;;;;17.75;10.25;;;;;;;22.47;54.70;157044.56;1718590;82;21277;-79
2020/12/30 05:23:45;;;;;;;17.12;11.03;;;;;;;22.43;55.13;157032.64;1662856;84;21352;-76
2020/12/30 05:26:17;;;;;;;17.57;10.85;;;;;;;22.53;54.81;157059.13;1658958;84;21206;-77
2020/12/30 05:28:58;;;;;;;14.60;9.98;;;;;;;22.45;53.85;157039.25;1688403;83;21179;-76
2020/12/30 05:31:35;;;;;;;17.15;10.15;;;;;;;22.45;54.50;157037.95;1663797;84;21482;-77
2020/12/30 05:34:11;;;;;;;16.85;10.03;;;;;;;22.41;54.32;157027.34;1686394;84;21198;-79
2020/12/30 05:36:54;;;;;;;18.62;10.82;;;;;;;22.33;54.11;157006.16;1686375;84;21229;-76
2020/12/30 05:39:32;;;;;;;16.25;10.43;;;;;;;22.27;54.52;156990.19;1670819;85;21368;-74
2020/12/30 05:42:21;;;;;;;15.05;9.83;;;;;;;22.30;54.29;156998.16;1686118;83;21179;-75
2020/12/30 05:44:57;;;;;;;16.77;10.85;;;;;;;22.24;54.14;156983.59;1686467;84;21920;-76
2020/12/30 05:47:30;;;;;;;17.62;11.43;;;;;;;22.27;53.96;156991.55;1685804;84;21260;-79
2020/12/30 05:50:04;;;;;;;19.05;11.35;;;;;;;22.20;54.25;156971.69;1686539;84;21229;-74
2020/12/30 05:52:41;;;;;;;18.12;11.38;;;;;;;22.23;53.81;156979.58;1689209;84;21880;-74
2020/12/30 05:55:14;;;;;;;19.10;10.95;;;;;;;22.22;55.01;156976.98;1686135;84;21708;-81
2020/12/30 05:57:47;;;;;;;16.60;11.03;;;;;;;22.23;53.09;156980.94;1693720;84;21366;-78
2020/12/30 06:00:20;;;;;;;14.47;10.20;;;;;;;22.11;53.62;156949.16;1662124;84;21760;-79
2020/12/30 06:02:52;;;;;;;16.07;10.58;;;;;;;22.13;53.50;156954.47;1685362;84;21895;-75
2020/12/30 06:05:25;;;;;;;17.90;10.88;;;;;;;22.04;54.11;156929.28;1685967;84;21237;-74
2020/12/30 06:07:58;;;;;;;16.25;10.18;;;;;;;21.98;54.25;156914.72;1686524;83;21222;-75
2020/12/30 06:10:30;;;;;;;16.70;10.13;;;;;;;22.06;54.12;156934.59;1686839;84;21764;-75
2020/12/30 06:13:03;;;;;;;16.05;10.35;;;;;;;22.04;53.98;156930.64;1687093;84;21190;-75
2020/12/30 06:15:35;;;;;;;15.15;9.88;;;;;;;22.11;54.45;156947.81;1672459;85;21237;-71
2020/12/30 06:18:10;;;;;;;17.23;9.95;;;;;;;22.17;54.34;156965.03;1688049;83;21250;-72
2020/12/30 06:20:42;;;;;;;15.23;10.23;;;;;;;22.29;53.92;156995.50;1675164;83;21229;-72
2020/12/30 06:23:15;;;;;;;14.78;9.83;;;;;;;22.32;53.72;157004.81;1717021;83;21442;-72
2020/12/30 06:25:48;;;;;;;13.72;9.15;;;;;;;22.33;53.47;157006.16;1718907;83;21391;-72
2020/12/30 06:28:22;;;;;;;15.28;10.10;;;;;;;22.25;53.24;156984.89;1718812;82;21284;-72
2020/12/30 06:30:55;;;;;;;14.90;9.33;;;;;;;22.35;54.00;157011.42;1719299;83;21212;-72
2020/12/30 06:33:27;;;;;;;13.35;8.38;;;;;;;22.37;53.97;157018.08;1719326;83;21383;-72
2020/12/30 06:36:01;;;;;;;13.30;9.55;;;;;;;22.45;54.87;157037.95;1697617;83;21382;-72
2020/12/30 06:38:34;;;;;;;15.10;10.20;;;;;;;22.57;53.71;157071.03;1719465;83;21329;-72
2020/12/30 06:41:07;;;;;;;14.93;9.60;;;;;;;22.51;53.73;157055.12;1719123;83;21352;-72
2020/12/30 06:43:50;;;;;;;14.87;9.63;;;;;;;22.57;53.53;157069.73;1719116;83;21229;-72
2020/12/30 06:46:29;;;;;;;16.25;10.38;;;;;;;22.48;52.96;157045.86;1719050;83;21351;-72
2020/12/30 06:49:06;;;;;;;13.68;10.00;;;;;;;22.41;53.55;157028.64;1718734;83;21189;-72
2020/12/30 06:51:46;;;;;;;15.88;9.63;;;;;;;22.34;53.35;157010.13;1718986;83;21303;-73
2020/12/30 06:54:14;;;;;;;16.48;9.48;;;;;;;22.39;53.40;157022.03;1718923;83;21352;-72
2020/12/30 06:56:48;;;;;;;16.12;10.10;;;;;;;22.35;53.02;157011.42;1718843;83;21208;-72
2020/12/30 06:59:27;;;;;;;17.55;10.13;;;;;;;22.33;53.05;157006.16;1719055;83;21237;-72
2020/12/30 07:02:04;;;;;;;16.23;9.88;;;;;;;22.32;52.84;157003.52;1718753;83;21264;-74
2020/12/30 07:04:37;;;;;;;14.85;9.48;;;;;;;22.26;53.25;156987.55;1719139;83;21206;-74
2020/12/30 07:07:22;;;;;;;17.05;9.18;;;;;;;22.27;53.56;156990.19;1718744;83;21201;-73
2020/12/30 07:09:54;;;;;;;15.70;9.25;;;;;;;22.30;52.91;156998.16;1718797;83;21709;-73
2020/12/30 07:12:32;;;;;;;14.83;9.88;;;;;;;22.29;52.44;156996.80;1718651;83;21348;-74
2020/12/30 07:15:05;;;;;;;15.72;9.60;;;;;;;22.27;52.89;156991.55;1718654;83;21331;-73
2020/12/30 07:17:39;;;;;;;14.05;8.48;;;;;;;22.18;53.01;156966.38;1719835;83;21447;-73
2020/12/30 07:20:26;;;;;;;13.62;8.70;;;;;;;22.22;53.20;156978.28;1675016;83;21292;-74
2020/12/30 07:23:08;;;;;;;13.43;7.62;;;;;;;22.19;52.96;156970.33;1718627;83;21198;-74
2020/12/30 07:25:40;;;;;;;12.10;7.87;;;;;;;22.23;53.06;156979.58;1725742;83;21254;-74
2020/12/30 07:28:13;;;;;;;12.85;8.45;;;;;;;22.23;53.60;156979.58;1692444;83;21209;-73
2020/12/30 07:30:45;;;;;;;15.30;9.03;;;;;;;22.28;53.48;156992.84;1692629;83;22486;-73
2020/12/30 07:33:18;;;;;;;13.83;8.48;;;;;;;22.28;53.92;156994.14;1722244;83;21934;-73
2020/12/30 07:35:56;;;;;;;14.13;9.05;;;;;;;22.30;53.31;156999.45;1722374;83;21327;-73
2020/12/30 07:38:24;;;;;;;12.65;8.25;;;;;;;22.32;53.60;157004.81;1722216;83;21761;-73
2020/12/30 07:41:10;;;;;;;14.28;9.23;;;;;;;22.35;53.42;157011.42;1722068;83;21685;-73
2020/12/30 07:43:52;;;;;;;13.62;8.00;;;;;;;22.41;53.21;157027.34;1722339;83;21197;-73
2020/12/30 07:46:24;;;;;;;11.90;7.95;;;;;;;22.44;53.37;157035.30;1722424;83;21205;-74
2020/12/30 07:49:25;;;;;;;13.65;7.42;;;;;;;22.40;53.66;157024.69;1722082;83;21819;-73
2020/12/30 07:51:55;;;;;;;14.68;8.83;;;;;;;22.59;53.36;157076.34;1721755;83;22373;-74
2020/12/30 07:54:28;;;;;;;13.35;8.60;;;;;;;22.49;53.14;157048.52;1722157;82;21728;-74
2020/12/30 07:57:10;;;;;;;15.30;8.55;;;;;;;22.54;53.42;157061.78;1722112;83;21201;-74
2020/12/30 07:59:48;;;;;;;16.75;9.75;;;;;;;22.61;52.95;157080.30;1722077;83;21284;-74
2020/12/30 08:02:20;;;;;;;12.90;8.58;;;;;;;22.55;53.20;157064.44;1722363;82;21371;-74
2020/12/30 08:05:02;;;;;;;14.03;9.65;;;;;;;22.51;53.44;157053.81;1722326;83;21363;-74
2020/12/30 08:07:36;;;;;;;14.43;8.58;;;;;;;22.49;53.43;157049.86;1722125;83;21327;-74
2020/12/30 08:10:09;;;;;;;13.60;8.83;;;;;;;22.54;53.06;157061.78;1722203;82;21229;-74
2020/12/30 08:12:41;;;;;;;12.40;7.83;;;;;;;22.54;53.42;157061.78;1722335;83;21964;-74
2020/12/30 08:15:13;;;;;;;12.18;7.45;;;;;;;22.79;53.33;157130.67;1722190;83;21359;-74
2020/12/30 08:17:45;;;;;;;11.75;7.87;;;;;;;22.67;53.43;157096.22;1722243;83;21241;-74
2020/12/30 08:20:18;;;;;;;13.10;7.60;;;;;;;22.71;53.36;157106.78;1722133;83;21339;-74
2020/12/30 08:22:52;;;;;;;15.18;8.88;;;;;;;22.75;53.40;157118.70;1722252;83;21197;-74
2020/12/30 08:25:26;;;;;;;14.73;8.18;;;;;;;22.83;53.05;157141.23;1689081;84;21399;-74
2020/12/30 08:27:58;;;;;;;13.03;8.83;;;;;;;22.81;51.89;157135.94;1706745;84;21855;-73
2020/12/30 08:30:35;;;;;;;17.20;9.40;;;;;;;22.92;52.57;157165.08;1706003;84;21332;-74
2020/12/30 08:33:10;;;;;;;14.83;8.00;;;;;;;22.81;53.06;157135.94;1705891;84;21360;-74
2020/12/30 08:35:47;;;;;;;14.40;9.18;;;;;;;22.78;52.77;157128.02;1706155;84;21241;-74
2020/12/30 08:38:20;;;;;;;14.20;8.88;;;;;;;22.85;52.90;157146.55;1706137;84;21340;-74
2020/12/30 08:40:53;;;;;;;15.70;9.18;;;;;;;22.84;53.05;157143.89;1706472;84;21194;-74
2020/12/30 08:43:41;;;;;;;15.18;8.70;;;;;;;22.86;52.87;157149.19;1706013;84;21250;-74
2020/12/30 08:46:25;;;;;;;13.48;8.10;;;;;;;22.68;53.33;157100.19;1706259;84;21691;-74
2020/12/30 08:48:57;;;;;;;12.45;8.48;;;;;;;22.70;53.53;157105.48;1706301;84;21225;-73
2020/12/30 08:51:34;;;;;;;11.68;7.90;;;;;;;22.67;53.94;157097.53;1706007;83;21328;-74
2020/12/30 08:54:19;;;;;;;12.65;7.97;;;;;;;22.78;53.64;157128.02;1706425;84;21356;-73
2020/12/30 08:56:51;;;;;;;16.15;7.80;;;;;;;22.81;53.57;157134.63;1706192;84;21377;-73
2020/12/30 08:59:24;;;;;;;14.23;8.60;;;;;;;22.91;53.35;157162.47;1686211;83;21340;-73
2020/12/30 09:02:15;;;;;;;14.43;8.98;;;;;;;22.80;53.45;157133.28;1706370;83;21198;-73
2020/12/30 09:04:55;;;;;;;16.75;9.50;;;;;;;22.79;53.93;157129.31;1706027;84;21206;-73
2020/12/30 09:07:30;;;;;;;15.03;9.45;;;;;;;22.85;54.30;157146.55;1706226;83;21372;-73
2020/12/30 09:10:10;;;;;;;16.50;10.08;;;;;;;22.74;54.11;157114.75;1697155;83;21193;-73
2020/12/30 09:12:44;;;;;;;18.62;10.38;;;;;;;22.66;54.17;157093.56;1682118;84;21743;-77
2020/12/30 09:15:21;;;;;;;19.50;10.10;;;;;;;22.58;54.56;157073.69;1690855;83;21847;-89
2020/12/30 09:18:00;;;;;;;16.70;10.65;;;;;;;22.59;54.69;157076.34;1665547;84;21289;-77
2020/12/30 09:20:37;;;;;;;17.05;9.20;;;;;;;22.71;54.59;157108.14;1696186;83;21317;-77
2020/12/30 09:23:10;;;;;;;15.30;8.83;;;;;;;22.77;54.48;157122.70;1695076;83;21229;-80
2020/12/30 09:25:43;;;;;;;17.07;9.50;;;;;;;22.84;54.54;157143.89;1696451;83;21229;-79
2020/12/30 09:28:25;;;;;;;15.80;8.70;;;;;;;22.93;54.27;157167.72;1695971;83;21229;-79
2020/12/30 09:30:59;;;;;;;13.53;8.68;;;;;;;23.01;54.44;157187.61;1696935;83;21332;-79
2020/12/30 09:33:34;;;;;;;17.07;10.13;;;;;;;23.07;54.45;157204.89;1630971;85;21964;-77
2020/12/30 09:36:08;;;;;;;13.03;8.65;;;;;;;23.09;54.35;157208.84;1698025;83;21221;-78
2020/12/30 09:38:41;;;;;;;12.80;8.05;;;;;;;23.15;54.41;157224.78;1698585;84;21332;-80
2020/12/30 09:41:14;;;;;;;15.00;8.13;;;;;;;23.31;54.25;157268.50;1698994;84;21343;-79
2020/12/30 09:43:47;;;;;;;17.48;8.68;;;;;;;23.25;54.34;157251.27;1702029;82;21268;-81
2020/12/30 09:46:23;;;;;;;16.95;9.08;;;;;;;23.30;54.28;157265.84;1703253;83;21858;-80
2020/12/30 09:48:55;;;;;;;15.58;8.20;;;;;;;23.36;54.46;157281.78;1667312;85;21928;-79
2020/12/30 09:51:29;;;;;;;13.28;7.97;;;;;;;23.48;54.11;157313.59;1669434;85;21282;-78
2020/12/30 09:54:10;;;;;;;12.93;7.60;;;;;;;23.46;54.25;157308.28;1668952;85;21250;-79
2020/12/30 09:56:56;;;;;;;14.10;8.15;;;;;;;23.50;53.97;157317.55;1698643;84;21238;-78
2020/12/30 09:59:35;;;;;;;15.55;8.65;;;;;;;23.48;53.90;157313.59;1667743;85;21247;-77
2020/12/30 10:02:10;;;;;;;11.60;7.92;;;;;;;23.49;53.89;157316.25;1697859;83;21226;-77
2020/12/30 10:04:43;;;;;;;14.13;7.45;;;;;;;23.40;53.88;157291.05;1697510;83;21210;-78
2020/12/30 10:07:16;;;;;;;22.37;9.68;;;;;;;23.38;53.59;157285.73;1666340;85;21417;-80
2020/12/30 10:09:52;;;;;;;13.93;8.40;;;;;;;23.42;53.59;157297.66;1668725;85;21210;-80
2020/12/30 10:12:24;;;;;;;14.53;8.50;;;;;;;23.42;53.45;157296.36;1698883;83;21192;-77
2020/12/30 10:15:01;;;;;;;17.35;8.78;;;;;;;23.38;53.79;157287.03;1697595;84;21344;-75
2020/12/30 10:17:35;;;;;;;13.32;7.90;;;;;;;23.50;53.94;157318.84;1698052;83;21639;-75
2020/12/30 10:20:13;;;;;;;14.40;7.67;;;;;;;23.53;53.63;157326.81;1668353;85;21391;-76
2020/12/30 10:22:49;;;;;;;13.72;7.85;;;;;;;23.48;53.39;157312.23;1696448;83;21431;-77
2020/12/30 10:25:22;;;;;;;11.57;7.08;;;;;;;23.28;53.34;157260.53;1699644;83;21194;-73
2020/12/30 10:28:06;;;;;;;12.05;7.05;;;;;;;23.34;54.39;157276.47;1714950;82;21245;-80
2020/12/30 10:30:40;;;;;;;11.88;7.22;;;;;;;23.44;52.99;157302.97;1726533;82;21266;-76
2020/12/30 10:33:20;;;;;;;13.72;7.35;;;;;;;23.52;53.44;157324.16;1728008;82;21322;-78
2020/12/30 10:35:52;;;;;;;12.93;6.70;;;;;;;23.42;52.79;157297.66;1731209;82;21301;-77
2020/12/30 10:38:25;;;;;;;13.72;7.30;;;;;;;23.44;53.21;157302.97;1726851;82;21291;-78
2020/12/30 10:40:58;;;;;;;9.83;6.37;;;;;;;23.44;53.78;157302.97;1706065;82;21217;-76
2020/12/30 10:43:30;;;;;;;10.48;6.15;;;;;;;23.39;53.76;157288.39;1728323;82;21320;-75
2020/12/30 10:46:03;;;;;;;10.00;6.12;;;;;;;23.35;53.49;157277.77;1726967;82;21713;-77
2020/12/30 10:48:39;;;;;;;11.50;6.33;;;;;;;23.24;52.49;157248.61;1727016;82;21229;-78
2020/12/30 10:51:17;;;;;;;9.53;5.80;;;;;;;23.33;53.97;157272.47;1636169;85;21449;-80
2020/12/30 10:53:59;;;;;;;11.43;5.62;;;;;;;23.46;53.68;157306.92;1727157;82;21198;-78
2020/12/30 10:56:35;;;;;;;11.55;6.80;;;;;;;23.40;53.18;157292.34;1728713;82;21937;-77
2020/12/30 10:59:12;;;;;;;8.53;5.62;;;;;;;23.51;53.84;157320.20;1727645;82;21205;-82
2020/12/30 11:01:53;;;;;;;9.93;5.92;;;;;;;23.48;53.50;157312.23;1727506;82;21208;-83
2020/12/30 11:04:26;;;;;;;8.85;5.75;;;;;;;23.39;52.98;157288.39;1728226;82;21798;-79
2020/12/30 11:07:02;;;;;;;12.13;5.33;;;;;;;23.54;53.38;157329.47;1727816;82;21688;-78
2020/12/30 11:09:35;;;;;;;8.40;5.67;;;;;;;23.46;53.42;157306.92;1728317;82;21292;-78
2020/12/30 11:12:09;;;;;;;10.85;6.12;;;;;;;23.50;53.76;157318.84;1726435;82;22059;-76
2020/12/30 11:14:44;;;;;;;9.43;6.30;;;;;;;23.51;53.62;157321.50;1729050;82;21171;-73
2020/12/30 11:17:19;;;;;;;14.43;7.08;;;;;;;23.48;53.82;157313.59;1731721;82;21747;-73
2020/12/30 11:19:54;;;;;;;10.08;6.22;;;;;;;23.50;53.64;157317.55;1727568;82;21222;-74
2020/12/30 11:22:29;;;;;;;10.88;5.92;;;;;;;23.33;53.04;157272.47;1728974;82;21345;-75
2020/12/30 11:25:06;;;;;;;11.80;6.40;;;;;;;23.22;53.42;157244.66;1728567;81;21227;-77
2020/12/30 11:27:45;;;;;;;10.15;5.70;;;;;;;23.14;53.15;157223.47;1728944;81;21212;-72
2020/12/30 11:30:20;;;;;;;8.53;6.12;;;;;;;23.26;53.76;157255.22;1731091;81;21194;-74
2020/12/30 11:32:54;;;;;;;11.38;6.30;;;;;;;23.27;53.95;157256.58;1731439;82;21888;-75
2020/12/30 11:35:31;;;;;;;9.45;5.85;;;;;;;23.23;53.33;157245.95;1731199;82;21384;-75
2020/12/30 11:38:12;;;;;;;11.93;6.47;;;;;;;23.23;53.92;157245.95;1730569;82;21923;-77
2020/12/30 11:40:48;;;;;;;10.85;5.97;;;;;;;23.29;53.99;157263.19;1730903;82;21364;-74
2020/12/30 11:43:22;;;;;;;8.90;5.47;;;;;;;23.37;54.28;157283.08;1730622;82;21403;-76
2020/12/30 11:45:55;;;;;;;12.25;5.92;;;;;;;23.38;54.13;157287.03;1731487;82;21340;-75